createdAt,value
2022-10-31T00:00:35.225Z,17.80
2022-10-31T00:03:05.617Z,17.90
2022-10-31T00:05:35.740Z,17.90
2022-10-31T00:08:06.042Z,17.70
2022-10-31T00:10:36.700Z,17.60
2022-10-31T00:13:07.071Z,17.60
2022-10-31T00:15:39.689Z,17.40
2022-10-31T00:18:11.144Z,17.30
2022-10-31T00:20:41.265Z,17.40
2022-10-31T00:23:13.229Z,17.40
2022-10-31T00:25:43.957Z,17.30
2022-10-31T00:28:15.018Z,17.20
2022-10-31T00:30:46.509Z,17.30
2022-10-31T00:33:16.766Z,17.30
2022-10-31T00:35:52.423Z,17.30
2022-10-31T00:38:22.849Z,17.20
2022-10-31T00:40:53.378Z,17.30
2022-10-31T00:43:23.607Z,17.20
2022-10-31T00:45:55.974Z,17.20
2022-10-31T00:48:28.554Z,17.30
2022-10-31T00:50:59.653Z,17.40
2022-10-31T00:53:30.030Z,17.60
2022-10-31T00:56:01.265Z,17.60
2022-10-31T00:58:31.883Z,17.70
2022-10-31T01:01:03.948Z,17.70
2022-10-31T01:03:37.038Z,17.70
2022-10-31T01:06:10.718Z,17.60
2022-10-31T01:08:42.195Z,17.40
2022-10-31T01:11:18.878Z,17.30
2022-10-31T01:13:50.220Z,17.30
2022-10-31T01:16:24.846Z,17.30
2022-10-31T01:18:55.682Z,17.40
2022-10-31T01:21:26.817Z,17.40
2022-10-31T01:23:58.267Z,17.50
2022-10-31T01:26:30.654Z,17.40
2022-10-31T01:29:02.508Z,17.60
2022-10-31T01:31:36.624Z,17.60
2022-10-31T01:34:08.373Z,17.50
2022-10-31T01:36:41.157Z,17.60
2022-10-31T01:39:14.863Z,17.70
2022-10-31T01:41:47.848Z,17.70
2022-10-31T01:44:58.106Z,17.60
2022-10-31T01:47:41.124Z,15.70
2022-10-31T01:50:23.846Z,17.60
2022-10-31T01:52:56.108Z,17.70
2022-10-31T01:55:30.602Z,17.60
2022-10-31T01:58:04.854Z,17.40
2022-10-31T02:00:35.487Z,17.30
2022-10-31T02:03:07.397Z,17.30
2022-10-31T02:05:38.581Z,17.30
2022-10-31T02:08:11.412Z,17.30
2022-10-31T02:10:42.087Z,17.20
2022-10-31T02:13:12.762Z,17.00
2022-10-31T02:15:57.389Z,17.00
2022-10-31T02:18:32.247Z,16.90
2022-10-31T02:21:07.669Z,16.70
2022-10-31T02:24:19.663Z,16.60
2022-10-31T02:27:06.768Z,16.70
2022-10-31T02:30:04.662Z,16.60
2022-10-31T02:32:52.073Z,16.50
2022-10-31T02:35:36.534Z,16.50
2022-10-31T02:38:17.000Z,16.50
2022-10-31T02:40:55.104Z,16.40
2022-10-31T02:43:43.248Z,16.40
2022-10-31T02:46:17.862Z,16.10
2022-10-31T02:48:51.371Z,16.10
2022-10-31T02:51:23.222Z,16.30
2022-10-31T02:53:53.448Z,16.10
2022-10-31T02:56:23.659Z,16.10
2022-10-31T02:58:58.911Z,16.20
2022-10-31T03:02:05.333Z,18.20
2022-10-31T03:05:09.808Z,16.30
2022-10-31T03:07:50.051Z,16.30
2022-10-31T03:10:28.689Z,16.20
2022-10-31T03:13:05.224Z,16.20
2022-10-31T03:15:38.629Z,16.30
2022-10-31T03:18:12.752Z,16.20
2022-10-31T03:20:47.791Z,16.20
2022-10-31T03:23:21.489Z,16.20
2022-10-31T03:25:56.622Z,16.10
2022-10-31T03:28:33.609Z,16.20
2022-10-31T03:31:07.418Z,16.20
2022-10-31T03:33:42.451Z,16.10
2022-10-31T03:36:18.631Z,15.90
2022-10-31T03:38:51.181Z,15.90
2022-10-31T03:41:28.170Z,15.80
2022-10-31T03:44:03.394Z,15.90
2022-10-31T03:46:33.727Z,16.00
2022-10-31T03:49:04.560Z,15.90
2022-10-31T03:51:43.075Z,15.80
2022-10-31T03:54:21.904Z,15.80
2022-10-31T03:56:55.708Z,15.90
2022-10-31T03:59:30.584Z,16.00
2022-10-31T04:02:06.947Z,15.80
2022-10-31T04:04:38.962Z,15.90
2022-10-31T04:07:12.775Z,15.80
2022-10-31T04:09:48.523Z,15.70
2022-10-31T04:12:19.670Z,15.60
2022-10-31T04:15:15.684Z,15.60
2022-10-31T04:17:48.573Z,15.70
2022-10-31T04:20:22.181Z,15.70
2022-10-31T04:22:54.955Z,15.40
2022-10-31T04:25:25.078Z,15.30
2022-10-31T04:27:58.724Z,15.20
2022-10-31T04:30:30.745Z,15.10
2022-10-31T04:33:01.853Z,15.20
2022-10-31T04:35:32.606Z,17.50
2022-10-31T04:38:04.685Z,15.20
2022-10-31T04:40:35.734Z,15.30
2022-10-31T04:43:24.275Z,15.30
2022-10-31T04:45:54.138Z,15.30
2022-10-31T04:48:25.840Z,15.30
2022-10-31T04:50:55.757Z,15.10
2022-10-31T04:53:28.124Z,15.10
2022-10-31T04:56:20.474Z,15.30
2022-10-31T04:58:58.077Z,15.20
2022-10-31T05:01:31.995Z,15.40
2022-10-31T05:04:04.559Z,15.50
2022-10-31T05:06:35.585Z,15.50
2022-10-31T05:09:07.755Z,15.00
2022-10-31T05:11:38.085Z,15.10
2022-10-31T05:14:26.633Z,15.30
2022-10-31T05:17:27.265Z,15.40
2022-10-31T05:20:22.164Z,15.10
2022-10-31T05:23:21.261Z,15.10
2022-10-31T05:25:53.849Z,15.20
2022-10-31T05:28:24.783Z,15.10
2022-10-31T05:30:56.929Z,15.10
2022-10-31T05:33:27.584Z,15.20
2022-10-31T05:36:16.437Z,15.30
2022-10-31T05:39:22.295Z,15.00
2022-10-31T05:42:00.616Z,14.90
2022-10-31T05:44:31.135Z,14.80
2022-10-31T05:47:21.422Z,13.20
2022-10-31T05:50:19.607Z,14.90
2022-10-31T05:52:57.404Z,14.80
2022-10-31T05:55:35.094Z,14.90
2022-10-31T05:58:16.484Z,14.90
2022-10-31T06:00:54.177Z,14.80
2022-10-31T06:03:24.600Z,14.90
2022-10-31T06:05:59.944Z,14.90
2022-10-31T06:08:38.564Z,14.80
2022-10-31T06:11:14.870Z,14.90
2022-10-31T06:14:10.602Z,15.00
2022-10-31T06:16:57.447Z,15.10
2022-10-31T06:19:47.498Z,15.00
2022-10-31T06:22:23.810Z,15.10
2022-10-31T06:24:54.126Z,15.30
2022-10-31T06:27:39.201Z,15.30
2022-10-31T06:30:20.375Z,15.20
2022-10-31T06:32:51.535Z,15.20
2022-10-31T06:35:23.589Z,15.30
2022-10-31T06:37:57.074Z,15.40
2022-10-31T06:40:36.002Z,15.30
2022-10-31T06:43:23.533Z,15.30
2022-10-31T06:46:09.647Z,15.40
2022-10-31T06:49:05.144Z,15.30
2022-10-31T06:51:59.220Z,15.30
2022-10-31T06:54:31.386Z,15.60
2022-10-31T06:57:02.282Z,15.60
2022-10-31T06:59:33.587Z,15.80
2022-10-31T07:02:19.722Z,15.90
2022-10-31T07:04:52.467Z,16.10
2022-10-31T07:07:23.190Z,16.10
2022-10-31T07:09:55.161Z,16.10
2022-10-31T07:12:40.741Z,16.20
2022-10-31T07:15:14.902Z,16.30
2022-10-31T07:17:47.115Z,16.40
2022-10-31T07:20:18.045Z,16.50
2022-10-31T07:22:50.739Z,16.50
2022-10-31T07:25:22.786Z,16.60
2022-10-31T07:28:14.628Z,16.60
2022-10-31T07:30:54.356Z,16.70
2022-10-31T07:33:28.686Z,16.80
2022-10-31T07:36:32.201Z,16.90
2022-10-31T07:39:08.097Z,16.90
2022-10-31T07:41:40.426Z,17.00
2022-10-31T07:44:18.163Z,16.90
2022-10-31T07:47:07.990Z,17.20
2022-10-31T07:49:58.184Z,17.30
2022-10-31T07:52:46.835Z,17.40
2022-10-31T07:55:47.366Z,17.50
2022-10-31T07:58:19.937Z,17.50
2022-10-31T08:00:52.303Z,17.60
2022-10-31T08:03:33.497Z,17.60
2022-10-31T08:06:23.598Z,17.60
2022-10-31T08:09:15.205Z,17.70
2022-10-31T08:11:47.665Z,17.90
2022-10-31T08:14:19.012Z,18.00
2022-10-31T08:16:48.629Z,18.00
2022-10-31T08:19:19.574Z,18.10
2022-10-31T08:21:54.085Z,18.10
2022-10-31T08:24:26.613Z,18.30
2022-10-31T08:26:59.667Z,18.30
2022-10-31T08:29:30.798Z,18.40
2022-10-31T08:32:01.843Z,18.40
2022-10-31T08:34:58.788Z,18.50
2022-10-31T08:37:42.727Z,18.70
2022-10-31T08:40:15.202Z,18.70
2022-10-31T08:42:45.318Z,18.90
2022-10-31T08:45:17.385Z,18.90
2022-10-31T08:47:48.637Z,18.90
2022-10-31T08:50:22.230Z,19.00
2022-10-31T08:53:05.138Z,19.30
2022-10-31T08:55:39.369Z,19.50
2022-10-31T08:58:24.546Z,19.60
2022-10-31T09:01:01.019Z,19.60
2022-10-31T09:03:33.691Z,19.50
2022-10-31T09:06:10.894Z,20.00
2022-10-31T09:08:43.954Z,17.90
2022-10-31T09:11:14.386Z,20.20
2022-10-31T09:14:05.199Z,20.30
2022-10-31T09:17:05.007Z,20.10
2022-10-31T09:19:53.976Z,20.10
2022-10-31T09:22:32.884Z,20.60
2022-10-31T09:25:05.264Z,20.70
2022-10-31T09:27:37.122Z,20.70
2022-10-31T09:30:09.398Z,20.70
2022-10-31T09:32:43.205Z,20.80
2022-10-31T09:35:17.376Z,20.90
2022-10-31T09:37:51.056Z,20.50
2022-10-31T09:40:24.159Z,20.70
2022-10-31T09:43:03.435Z,20.90
2022-10-31T09:45:42.451Z,21.10
2022-10-31T09:48:49.951Z,21.30
2022-10-31T09:51:34.513Z,21.70
2022-10-31T09:54:22.648Z,22.10
2022-10-31T09:56:57.171Z,21.30
2022-10-31T09:59:32.568Z,21.30
2022-10-31T10:02:07.898Z,21.30
2022-10-31T10:04:44.742Z,21.60
2022-10-31T10:07:32.268Z,21.80
2022-10-31T10:10:26.333Z,21.80
2022-10-31T10:13:35.789Z,21.80
2022-10-31T10:16:19.970Z,21.70
2022-10-31T10:19:05.306Z,21.70
2022-10-31T10:21:47.913Z,21.80
2022-10-31T10:24:31.981Z,21.60
2022-10-31T10:27:19.209Z,21.80
2022-10-31T10:30:03.239Z,22.10
2022-10-31T10:32:40.944Z,22.40
2022-10-31T10:35:20.786Z,22.10
2022-10-31T10:37:54.275Z,22.30
2022-10-31T10:40:27.969Z,22.60
2022-10-31T10:43:22.769Z,23.10
2022-10-31T10:46:40.002Z,22.90
2022-10-31T10:49:20.176Z,22.90
2022-10-31T10:54:59.617Z,23.90
2022-10-31T10:57:52.054Z,24.10
2022-10-31T11:00:24.844Z,24.40
2022-10-31T11:02:58.341Z,24.40
2022-10-31T11:05:33.265Z,24.00
2022-10-31T11:08:05.871Z,24.60
2022-10-31T11:10:36.693Z,24.80
2022-10-31T11:13:22.887Z,24.70
2022-10-31T11:15:59.001Z,24.80
2022-10-31T11:18:34.011Z,24.80
2022-10-31T11:21:07.366Z,25.00
2022-10-31T11:23:38.921Z,24.70
2022-10-31T11:26:22.664Z,24.60
2022-10-31T11:29:03.927Z,25.10
2022-10-31T11:31:38.967Z,25.80
2022-10-31T11:34:23.223Z,25.60
2022-10-31T11:36:56.822Z,25.70
2022-10-31T11:39:30.324Z,26.50
2022-10-31T11:42:09.086Z,27.30
2022-10-31T11:44:40.590Z,26.70
2022-10-31T11:47:19.307Z,26.60
2022-10-31T11:49:54.556Z,27.50
2022-10-31T11:52:29.590Z,27.70
2022-10-31T11:55:02.675Z,26.30
2022-10-31T11:57:35.877Z,26.10
2022-10-31T12:00:23.332Z,26.60
2022-10-31T12:03:07.383Z,26.70
2022-10-31T12:05:41.652Z,27.10
2022-10-31T12:08:15.676Z,27.00
2022-10-31T12:10:56.121Z,27.20
2022-10-31T12:13:38.019Z,27.60
2022-10-31T12:16:16.029Z,26.90
2022-10-31T12:19:02.223Z,26.40
2022-10-31T12:21:50.097Z,26.30
2022-10-31T12:24:32.570Z,26.90
2022-10-31T12:27:14.257Z,27.50
2022-10-31T12:29:59.110Z,27.50
2022-10-31T12:32:41.013Z,27.70
2022-10-31T12:35:36.758Z,27.20
2022-10-31T12:38:26.513Z,26.40
2022-10-31T12:41:11.998Z,26.20
2022-10-31T12:43:49.588Z,26.50
2022-10-31T12:46:33.015Z,26.70
2022-10-31T12:49:23.732Z,26.80
2022-10-31T12:52:07.865Z,26.60
2022-10-31T12:54:53.147Z,26.50
2022-10-31T12:57:31.047Z,27.20
2022-10-31T13:00:06.508Z,27.00
2022-10-31T13:02:46.851Z,26.20
2022-10-31T13:05:21.163Z,26.50
2022-10-31T13:07:55.900Z,26.20
2022-10-31T13:10:32.357Z,26.60
2022-10-31T13:13:09.956Z,25.90
2022-10-31T13:15:52.976Z,26.00
2022-10-31T13:18:31.797Z,26.20
2022-10-31T13:21:06.833Z,26.20
2022-10-31T13:23:56.310Z,26.40
2022-10-31T13:26:40.449Z,26.20
2022-10-31T13:29:20.710Z,26.20
2022-10-31T13:31:52.054Z,27.30
2022-10-31T13:34:29.278Z,27.60
2022-10-31T13:37:15.333Z,27.30
2022-10-31T13:40:01.944Z,27.10
2022-10-31T13:42:45.574Z,26.60
2022-10-31T13:45:18.873Z,26.40
2022-10-31T13:48:00.522Z,26.00
2022-10-31T13:50:33.240Z,26.30
2022-10-31T13:53:22.518Z,25.70
2022-10-31T13:55:54.158Z,25.40
2022-10-31T13:58:31.343Z,25.40
2022-10-31T14:01:16.825Z,25.60
2022-10-31T14:04:05.003Z,26.20
2022-10-31T14:06:48.703Z,26.00
2022-10-31T14:09:31.621Z,26.30
2022-10-31T14:12:06.864Z,26.60
2022-10-31T14:14:51.266Z,26.60
2022-10-31T14:17:26.957Z,27.10
2022-10-31T14:20:24.740Z,26.30
2022-10-31T14:22:54.895Z,26.10
2022-10-31T14:25:30.079Z,25.90
2022-10-31T14:28:06.563Z,26.00
2022-10-31T14:30:59.512Z,26.20
2022-10-31T14:33:33.622Z,27.40
2022-10-31T14:36:16.033Z,27.00
2022-10-31T14:38:59.763Z,27.40
2022-10-31T14:41:45.561Z,28.10
2022-10-31T14:44:41.690Z,27.90
2022-10-31T14:47:23.780Z,27.00
2022-10-31T14:50:14.487Z,27.40
2022-10-31T14:52:48.846Z,27.00
2022-10-31T14:55:21.341Z,27.10
2022-10-31T14:57:54.278Z,27.40
2022-10-31T15:00:27.983Z,27.70
2022-10-31T15:03:09.867Z,27.70
2022-10-31T15:05:48.993Z,27.40
2022-10-31T15:08:34.790Z,27.00
2022-10-31T15:11:14.781Z,26.80
2022-10-31T15:13:50.243Z,26.50
2022-10-31T15:16:23.922Z,26.40
2022-10-31T15:19:00.353Z,26.20
2022-10-31T15:21:32.934Z,25.80
2022-10-31T15:24:08.780Z,25.70
2022-10-31T15:26:51.074Z,25.60
2022-10-31T15:29:29.183Z,25.30
2022-10-31T15:32:11.828Z,25.00
2022-10-31T15:34:46.927Z,24.70
2022-10-31T15:37:20.122Z,24.50
2022-10-31T15:39:51.171Z,24.20
2022-10-31T15:42:25.652Z,24.00
2022-10-31T15:45:01.444Z,23.80
2022-10-31T15:47:36.174Z,24.20
2022-10-31T15:50:23.805Z,23.60
2022-10-31T15:52:55.593Z,23.40
2022-10-31T15:55:29.572Z,23.20
2022-10-31T15:58:05.858Z,23.00
2022-10-31T16:00:41.283Z,22.80
2022-10-31T16:03:36.061Z,22.70
2022-10-31T16:06:11.724Z,22.50
2022-10-31T16:08:53.201Z,22.40
2022-10-31T16:11:31.534Z,22.30
2022-10-31T16:14:07.989Z,22.10
2022-10-31T16:16:44.037Z,22.10
2022-10-31T16:19:23.270Z,22.10
2022-10-31T16:21:58.822Z,21.90
2022-10-31T16:24:33.546Z,21.90
2022-10-31T16:27:09.091Z,21.70
2022-10-31T16:29:45.978Z,21.60
2022-10-31T16:32:30.828Z,21.50
2022-10-31T16:35:22.058Z,21.90
2022-10-31T16:37:54.332Z,20.80
2022-10-31T16:40:24.942Z,21.10
2022-10-31T16:42:55.891Z,20.40
2022-10-31T16:45:27.339Z,20.20
2022-10-31T16:48:04.346Z,20.30
2022-10-31T16:50:36.496Z,20.30
2022-10-31T16:53:14.491Z,20.20
2022-10-31T16:55:49.968Z,20.20
2022-10-31T16:58:27.021Z,20.30
2022-10-31T17:00:57.901Z,20.40
2022-10-31T17:03:31.050Z,20.40
2022-10-31T17:06:03.014Z,20.40
2022-10-31T17:08:37.539Z,20.20
2022-10-31T17:11:08.982Z,20.00
2022-10-31T17:13:39.817Z,20.10
2022-10-31T17:16:10.151Z,20.00
2022-10-31T17:18:41.541Z,19.90
2022-10-31T17:21:18.571Z,19.80
2022-10-31T17:23:50.936Z,19.70
2022-10-31T17:26:21.681Z,19.70
2022-10-31T17:28:51.689Z,19.50
2022-10-31T17:31:29.286Z,19.50
2022-10-31T17:34:02.361Z,19.70
2022-10-31T17:36:34.446Z,19.70
2022-10-31T17:39:07.825Z,19.70
2022-10-31T17:41:40.095Z,19.80
2022-10-31T17:44:13.190Z,19.50
2022-10-31T17:46:43.718Z,19.20
2022-10-31T17:49:14.853Z,19.00
2022-10-31T17:51:45.601Z,18.90
2022-10-31T17:54:19.499Z,19.00
2022-10-31T17:56:49.310Z,19.00
2022-10-31T17:59:19.682Z,19.00
2022-10-31T18:01:49.888Z,19.00
2022-10-31T18:04:19.654Z,19.00
2022-10-31T18:06:50.708Z,18.80
2022-10-31T18:09:22.469Z,18.80
2022-10-31T18:11:52.389Z,18.80
2022-10-31T18:14:23.007Z,18.90
2022-10-31T18:16:54.060Z,19.00
2022-10-31T18:19:24.266Z,19.00
2022-10-31T18:21:54.100Z,18.90
2022-10-31T18:24:25.734Z,18.90
2022-10-31T18:26:56.380Z,19.00
2022-10-31T18:29:27.520Z,18.90
2022-10-31T18:31:57.540Z,18.90
2022-10-31T18:34:28.468Z,18.90
2022-10-31T18:37:01.409Z,18.90
2022-10-31T18:39:34.141Z,18.80
2022-10-31T18:42:04.670Z,18.90
2022-10-31T18:44:34.677Z,19.00
2022-10-31T18:47:05.207Z,18.90
2022-10-31T18:49:36.868Z,18.70
2022-10-31T18:52:06.991Z,18.70
2022-10-31T18:54:38.545Z,18.50
2022-10-31T18:57:09.380Z,18.60
2022-10-31T18:59:39.694Z,18.50
2022-10-31T19:02:11.456Z,18.60
2022-10-31T19:04:42.540Z,18.50
2022-10-31T19:07:12.820Z,18.50
2022-10-31T19:09:44.383Z,18.30
2022-10-31T19:12:14.909Z,18.30
2022-10-31T19:14:47.381Z,18.20
2022-10-31T19:17:18.023Z,17.90
2022-10-31T19:19:48.030Z,17.80
2022-10-31T19:22:19.680Z,18.00
2022-10-31T19:24:51.850Z,18.10
2022-10-31T19:27:22.164Z,18.00
2022-10-31T19:29:52.500Z,17.80
2022-10-31T19:32:22.312Z,17.80
2022-10-31T19:34:52.219Z,17.80
2022-10-31T19:37:22.241Z,17.70
2022-10-31T19:39:54.921Z,17.90
2022-10-31T19:42:24.830Z,18.00
2022-10-31T19:44:55.060Z,18.10
2022-10-31T19:47:26.088Z,18.10
2022-10-31T19:49:56.005Z,18.10
2022-10-31T19:52:26.019Z,18.10
2022-10-31T19:54:58.194Z,18.00
2022-10-31T19:57:48.949Z,18.00
2022-10-31T20:00:20.748Z,18.00
2022-10-31T20:02:54.977Z,17.80
2022-10-31T20:05:26.932Z,18.00
2022-10-31T20:08:00.120Z,18.00
2022-10-31T20:10:31.773Z,17.90
2022-10-31T20:13:05.182Z,17.60
2022-10-31T20:15:36.669Z,17.30
2022-10-31T20:18:09.489Z,17.20
2022-10-31T20:20:42.075Z,17.30
2022-10-31T20:23:13.319Z,17.20
2022-10-31T20:25:51.561Z,17.40
2022-10-31T20:28:22.071Z,17.30
2022-10-31T20:30:53.320Z,17.50
2022-10-31T20:33:23.944Z,17.60
2022-10-31T20:35:54.669Z,17.50
2022-10-31T20:38:24.902Z,17.50
2022-10-31T20:41:01.803Z,17.40
2022-10-31T20:43:31.900Z,17.40
2022-10-31T20:46:03.080Z,17.30
2022-10-31T20:48:35.398Z,17.10
2022-10-31T20:51:07.598Z,17.00
2022-10-31T20:53:39.431Z,16.80
2022-10-31T20:56:12.799Z,16.70
2022-10-31T20:58:47.150Z,16.80
2022-10-31T21:01:19.368Z,16.90
2022-10-31T21:03:50.457Z,17.10
2022-10-31T21:06:24.058Z,17.30
2022-10-31T21:08:54.901Z,17.10
2022-10-31T21:11:28.810Z,17.00
2022-10-31T21:14:00.069Z,16.90
2022-10-31T21:16:36.105Z,16.90
2022-10-31T21:19:08.435Z,17.10
2022-10-31T21:21:40.127Z,17.20
2022-10-31T21:24:16.596Z,17.10
2022-10-31T21:26:52.360Z,16.90
2022-10-31T21:29:24.020Z,16.80
2022-10-31T21:31:54.440Z,16.70
2022-10-31T21:34:24.350Z,16.60
2022-10-31T21:36:54.365Z,16.80
2022-10-31T21:39:24.182Z,16.90
2022-10-31T21:41:55.848Z,16.70
2022-10-31T21:44:26.155Z,16.70
2022-10-31T21:46:56.081Z,16.80
2022-10-31T21:49:25.887Z,16.80
2022-10-31T21:51:56.095Z,16.80
2022-10-31T21:54:29.191Z,16.80
2022-10-31T21:57:04.131Z,16.90
2022-10-31T21:59:34.141Z,16.90
2022-10-31T22:02:04.303Z,16.90
2022-10-31T22:04:36.643Z,16.70
2022-10-31T22:07:08.500Z,16.50
2022-10-31T22:09:39.693Z,16.50
2022-10-31T22:12:11.814Z,16.50
2022-10-31T22:18:34.476Z,16.40
2022-10-31T22:21:05.400Z,16.40
2022-10-31T22:23:36.046Z,16.60
2022-10-31T22:26:07.380Z,16.70
2022-10-31T22:28:38.226Z,16.70
2022-10-31T22:33:44.099Z,16.60
2022-10-31T22:36:16.058Z,16.60
2022-10-31T22:38:47.104Z,16.40
2022-10-31T22:41:19.481Z,16.20
2022-10-31T22:43:51.020Z,16.50
2022-10-31T22:46:22.465Z,16.20
2022-10-31T22:48:55.359Z,16.20
2022-10-31T22:51:27.416Z,16.20
2022-10-31T22:53:58.160Z,15.90
2022-10-31T22:56:30.844Z,15.90
2022-10-31T22:59:01.465Z,16.00
2022-10-31T23:01:33.392Z,16.10
2022-10-31T23:04:06.480Z,16.20
2022-10-31T23:06:36.944Z,16.20
2022-10-31T23:09:08.595Z,16.00
2022-10-31T23:11:39.760Z,16.10
2022-10-31T23:14:14.127Z,15.80
2022-10-31T23:16:45.599Z,15.60
2022-10-31T23:19:17.721Z,15.40
2022-10-31T23:21:59.816Z,15.70
2022-10-31T23:24:33.229Z,15.50
2022-10-31T23:27:11.693Z,15.50
2022-10-31T23:29:43.646Z,15.60
2022-10-31T23:32:16.317Z,15.70
2022-10-31T23:34:47.455Z,15.80
2022-10-31T23:37:16.855Z,16.00
2022-10-31T23:39:45.606Z,15.90
2022-10-31T23:42:15.702Z,15.90
2022-10-31T23:44:44.831Z,15.80
2022-10-31T23:47:14.055Z,15.80
2022-10-31T23:49:43.089Z,15.70
2022-10-31T23:52:14.057Z,15.70
2022-10-31T23:54:43.178Z,15.80
2022-10-31T23:57:12.681Z,15.70
2022-10-31T23:59:41.705Z,15.70
